Time;durP1;ratioP1;P1;durP2;ratioP2;P2;SDS_P1;SDS_P2;PMS_P1;PMS_P2;Temp;Humidity;BMP_temperature;BMP_pressure;BME280_temperature;BME280_humidity;BME280_pressure;Samples;Min_cycle;Max_cycle;Signal;HPM_P1;HPM_P2
2022/07/22 00:00:44;;;;;;;1.42;0.93;;;;;;;16.95;95.27;101992.03;5057677;28;20048;-72
2022/07/22 00:03:10;;;;;;;4.05;2.30;;;;;;;16.97;95.34;101992.69;5079036;28;20365;-72
2022/07/22 00:05:35;;;;;;;1.20;0.80;;;;;;;16.97;94.31;101992.69;5076828;28;20055;-72
2022/07/22 00:08:01;;;;;;;1.30;1.00;;;;;;;16.97;93.44;101990.03;5080254;28;20106;-72
2022/07/22 00:10:26;;;;;;;2.60;0.55;;;;;;;17.03;94.33;102002.72;5078294;28;20043;-72
2022/07/22 00:12:52;;;;;;;1.95;0.70;;;;;;;17.06;93.74;101997.03;5078021;28;20373;-72
2022/07/22 00:15:17;;;;;;;4.95;1.55;;;;;;;17.06;93.49;102002.38;5079266;28;20024;-71
2022/07/22 00:17:42;;;;;;;5.80;0.70;;;;;;;17.03;94.43;102003.53;5081334;28;20021;-71
2022/07/22 00:20:09;;;;;;;3.65;1.38;;;;;;;17.02;93.70;102001.84;5080823;28;20036;-72
2022/07/22 00:22:34;;;;;;;4.97;1.13;;;;;;;16.90;93.42;101989.00;5081464;28;20038;-71
2022/07/22 00:25:00;;;;;;;1.05;0.60;;;;;;;16.99;92.30;102009.38;5081643;28;20135;-71
2022/07/22 00:27:25;;;;;;;7.40;1.67;;;;;;;16.95;92.64;101995.53;5075992;28;20020;-71
2022/07/22 00:29:51;;;;;;;3.85;1.15;;;;;;;16.95;92.42;102005.34;5076496;28;20032;-71
2022/07/22 00:32:16;;;;;;;1.63;0.85;;;;;;;16.90;91.64;101999.66;5082734;28;20107;-71
2022/07/22 00:34:41;;;;;;;3.17;1.05;;;;;;;16.90;92.47;101999.66;5063226;28;20034;-71
2022/07/22 00:37:07;;;;;;;4.32;0.80;;;;;;;16.94;91.70;101993.88;5083296;28;20036;-72
2022/07/22 00:39:33;;;;;;;0.82;0.52;;;;;;;16.93;90.79;101996.69;5079417;28;20028;-72
2022/07/22 00:41:59;;;;;;;1.85;0.63;;;;;;;16.89;90.74;101984.69;5083421;28;20054;-72
2022/07/22 00:44:26;;;;;;;1.73;0.70;;;;;;;16.91;90.58;101994.19;5081641;28;20032;-72
2022/07/22 00:46:51;;;;;;;1.10;0.40;;;;;;;16.75;90.67;101970.13;5078485;28;20051;-72
2022/07/22 00:49:16;;;;;;;1.77;0.70;;;;;;;16.91;90.89;101998.69;5058878;28;20168;-72
2022/07/22 00:51:42;;;;;;;1.10;0.50;;;;;;;16.90;90.99;102007.66;5080068;28;20029;-71
2022/07/22 00:54:08;;;;;;;3.92;1.35;;;;;;;16.90;89.81;101999.66;5083065;28;20554;-71
2022/07/22 00:56:34;;;;;;;8.38;0.82;;;;;;;16.84;91.07;101999.31;5082491;28;20103;-71
2022/07/22 00:59:04;;;;;;;1.52;1.13;;;;;;;16.85;89.64;101990.34;5080552;28;20092;-71
2022/07/22 01:01:29;;;;;;;2.03;0.85;;;;;;;16.87;89.18;101998.16;5080331;28;20029;-71
2022/07/22 01:03:55;;;;;;;4.40;0.93;;;;;;;16.81;90.04;101994.34;5078015;28;20506;-72
2022/07/22 01:06:20;;;;;;;3.83;0.70;;;;;;;16.81;89.50;101997.00;5079967;28;20633;-72
2022/07/22 01:08:45;;;;;;;1.02;0.45;;;;;;;16.82;90.47;101996.00;5077967;28;20052;-72
2022/07/22 01:11:16;;;;;;;1.42;0.90;;;;;;;16.80;89.68;101992.66;5077650;28;20046;-72
2022/07/22 01:13:42;;;;;;;;;;;;;;;16.76;90.16;101996.59;5081256;28;20480;-71
2022/07/22 01:16:09;;;;;;;0.30;0.30;;;;;;;16.77;89.81;101998.28;5076126;28;20380;-71
2022/07/22 01:18:36;;;;;;;1.27;0.40;;;;;;;16.71;90.44;101990.13;5081710;28;20062;-71
2022/07/22 01:21:02;;;;;;;2.80;0.70;;;;;;;16.75;90.73;101992.28;5059956;28;20037;-72
2022/07/22 01:23:27;;;;;;;1.70;0.80;;;;;;;16.76;90.21;101999.28;5080478;28;20131;-72
2022/07/22 01:25:53;;;;;;;3.00;0.75;;;;;;;16.71;90.75;101985.59;5078266;28;20115;-72
2022/07/22 01:28:19;;;;;;;2.88;0.47;;;;;;;16.75;90.81;101989.63;5078267;28;20487;-72
2022/07/22 01:30:44;;;;;;;0.70;0.52;;;;;;;16.76;90.84;102001.09;5080215;28;20400;-72
2022/07/22 01:33:09;;;;;;;1.10;0.50;;;;;;;16.74;90.78;101997.78;5078601;28;20119;-72
2022/07/22 01:35:35;;;;;;;1.20;0.45;;;;;;;16.71;91.38;101993.59;5081145;28;20024;-73
2022/07/22 01:38:00;;;;;;;2.05;0.40;;;;;;;16.74;90.13;101992.44;5060309;28;20023;-72
2022/07/22 01:40:26;;;;;;;3.13;0.73;;;;;;;16.72;90.04;101984.59;5081206;28;20074;-72
2022/07/22 01:42:51;;;;;;;1.40;0.82;;;;;;;16.71;89.44;101977.59;5076442;28;20036;-72
2022/07/22 01:45:16;;;;;;;2.35;0.73;;;;;;;16.76;90.26;101995.78;5078954;28;20032;-72
2022/07/22 01:47:42;;;;;;;1.20;0.70;;;;;;;16.74;89.99;102003.94;5077351;28;20036;-73
2022/07/22 01:50:11;;;;;;;3.95;0.85;;;;;;;16.75;89.82;101997.63;5079759;28;20032;-72
2022/07/22 01:52:37;;;;;;;0.80;0.22;;;;;;;16.78;90.30;102004.44;5080254;28;20051;-72
2022/07/22 01:55:05;;;;;;;0.80;0.55;;;;;;;16.67;90.74;101986.91;5078448;28;20104;-72
2022/07/22 01:57:30;;;;;;;1.70;0.40;;;;;;;16.76;90.61;101991.28;5059410;28;20565;-71
2022/07/22 01:59:56;;;;;;;9.07;1.27;;;;;;;16.79;89.96;101998.97;5076915;28;20024;-72
2022/07/22 02:02:21;;;;;;;6.45;0.57;;;;;;;16.79;90.20;102001.63;5080928;28;20068;-71
2022/07/22 02:04:46;;;;;;;4.05;0.57;;;;;;;16.67;89.29;101981.59;5079640;28;20131;-71
2022/07/22 02:07:12;;;;;;;0.60;0.30;;;;;;;16.78;89.38;102002.59;5077019;28;20036;-72
2022/07/22 02:09:37;;;;;;;0.82;0.50;;;;;;;16.79;88.73;101996.28;5078697;28;20123;-71
2022/07/22 02:12:03;;;;;;;1.00;0.50;;;;;;;16.71;88.18;101993.59;5080189;28;20039;-71
2022/07/22 02:14:28;;;;;;;5.53;0.50;;;;;;;16.77;87.10;102000.97;5078960;28;20032;-72
2022/07/22 02:16:53;;;;;;;1.98;0.35;;;;;;;16.76;87.09;101995.78;5079565;28;20028;-72
2022/07/22 02:19:19;;;;;;;1.90;0.50;;;;;;;16.74;87.30;101993.25;5078358;28;20099;-72
2022/07/22 02:21:44;;;;;;;0.50;0.30;;;;;;;16.77;86.99;101992.97;5078028;28;20051;-72
2022/07/22 02:24:10;;;;;;;1.95;0.52;;;;;;;16.78;87.06;101997.28;5078574;28;20153;-72
2022/07/22 02:26:35;;;;;;;1.10;0.47;;;;;;;16.76;86.55;101990.44;5077995;28;20024;-71
2022/07/22 02:29:00;;;;;;;1.25;0.55;;;;;;;16.72;87.17;101989.94;5078182;28;20032;-71
2022/07/22 02:31:26;;;;;;;0.65;0.40;;;;;;;16.67;87.59;101984.25;5077031;28;20060;-71
2022/07/22 02:33:52;;;;;;;2.22;0.47;;;;;;;16.60;88.02;101973.41;5078780;28;20560;-72
2022/07/22 02:36:18;;;;;;;3.30;0.75;;;;;;;16.69;87.43;101990.25;5079808;28;20024;-71
2022/07/22 02:38:44;;;;;;;2.15;0.45;;;;;;;16.69;87.77;101989.44;5075913;28;20028;-71
2022/07/22 02:41:10;;;;;;;0.70;0.52;;;;;;;16.69;87.51;101995.59;5056453;28;20032;-71
2022/07/22 02:43:35;;;;;;;0.90;0.32;;;;;;;16.64;86.94;101993.41;5076038;28;20042;-71
2022/07/22 02:46:00;;;;;;;1.35;1.05;;;;;;;16.61;86.95;101993.75;5076279;28;20392;-71
2022/07/22 02:48:26;;;;;;;2.60;1.17;;;;;;;16.53;86.27;101993.72;5078849;28;20036;-71
2022/07/22 02:50:51;;;;;;;1.75;0.88;;;;;;;16.41;85.42;101976.34;5077284;28;20115;-72
2022/07/22 02:53:16;;;;;;;1.63;0.40;;;;;;;16.50;85.84;101998.53;5080129;28;20060;-71
2022/07/22 02:55:42;;;;;;;2.58;0.68;;;;;;;16.51;85.08;101998.38;5076574;28;20048;-71
2022/07/22 02:58:08;;;;;;;1.33;0.52;;;;;;;16.51;85.63;101994.88;5079134;28;20028;-71
2022/07/22 03:00:37;;;;;;;3.30;0.68;;;;;;;16.54;85.35;102000.72;5060024;28;20024;-71
2022/07/22 03:03:03;;;;;;;0.95;0.52;;;;;;;16.39;85.80;101983.66;5078201;28;20020;-72
2022/07/22 03:05:29;;;;;;;2.05;0.40;;;;;;;16.52;85.67;102004.53;5079908;28;20523;-71
2022/07/22 03:07:54;;;;;;;0.55;0.30;;;;;;;16.51;85.04;102008.22;5079670;28;20032;-71
2022/07/22 03:10:20;;;;;;;2.67;0.80;;;;;;;16.51;84.91;102016.19;5075583;28;20134;-71
2022/07/22 03:12:45;;;;;;;2.03;0.75;;;;;;;16.49;85.24;102008.34;5080559;28;20035;-71
2022/07/22 03:15:11;;;;;;;0.52;0.28;;;;;;;16.44;85.40;102002.69;5081789;28;20037;-71
2022/07/22 03:17:37;;;;;;;1.52;0.50;;;;;;;16.51;84.85;102013.53;5083563;28;20120;-71
2022/07/22 03:20:05;;;;;;;0.57;0.40;;;;;;;16.50;85.08;102007.34;5084251;28;20024;-71
2022/07/22 03:22:30;;;;;;;1.48;0.82;;;;;;;16.52;85.22;102007.19;5082731;28;20403;-71
2022/07/22 03:24:56;;;;;;;1.63;0.75;;;;;;;16.52;85.27;102004.53;5082492;28;20109;-71
2022/07/22 03:27:21;;;;;;;0.98;0.80;;;;;;;16.49;86.28;102003.03;5083399;28;20016;-71
2022/07/22 03:29:47;;;;;;;6.32;0.55;;;;;;;16.47;86.33;102006.84;5080111;28;20037;-71
2022/07/22 03:32:12;;;;;;;1.13;0.50;;;;;;;16.47;87.12;102001.53;5078966;28;20036;-71
2022/07/22 03:34:38;;;;;;;1.80;0.50;;;;;;;16.48;87.03;102004.00;5081004;28;20032;-71
2022/07/22 03:37:03;;;;;;;1.45;0.30;;;;;;;16.45;87.69;101999.00;5079339;28;20029;-71
2022/07/22 03:39:29;;;;;;;1.75;0.75;;;;;;;16.47;88.03;102001.53;5081347;28;20020;-71
2022/07/22 03:41:54;;;;;;;1.70;0.60;;;;;;;16.33;87.69;101984.28;5081528;28;20403;-71
2022/07/22 03:44:20;;;;;;;3.92;0.60;;;;;;;16.38;87.12;101987.34;5078516;28;20516;-72
2022/07/22 03:46:45;;;;;;;1.13;0.70;;;;;;;16.50;87.04;102004.69;5079817;28;20512;-71
2022/07/22 03:49:10;;;;;;;1.42;0.55;;;;;;;16.44;86.57;101998.19;5080675;28;20045;-71
2022/07/22 03:51:36;;;;;;;1.00;0.60;;;;;;;16.52;86.66;101999.19;5080480;28;20025;-71
2022/07/22 03:54:01;;;;;;;1.83;0.80;;;;;;;16.42;86.30;102000.19;5082751;28;20028;-71
2022/07/22 03:56:27;;;;;;;5.35;0.60;;;;;;;16.42;85.98;102005.50;5081659;28;20114;-72
2022/07/22 03:58:52;;;;;;;2.50;0.63;;;;;;;16.41;85.56;102011.81;5061832;28;20107;-71
2022/07/22 04:01:18;;;;;;;4.50;1.42;;;;;;;16.40;84.19;102012.81;5079388;28;20037;-72
2022/07/22 04:03:43;;;;;;;0.63;0.52;;;;;;;16.41;83.76;102011.81;5079743;28;20027;-71
2022/07/22 04:06:08;;;;;;;2.15;0.50;;;;;;;16.28;84.23;101997.28;5077597;28;20028;-71
2022/07/22 04:08:34;;;;;;;3.30;0.90;;;;;;;16.42;84.64;102023.31;5080322;28;20414;-71
2022/07/22 04:10:59;;;;;;;0.43;0.28;;;;;;;16.42;84.39;102016.16;5081575;28;20127;-71
2022/07/22 04:13:25;;;;;;;4.32;0.57;;;;;;;16.30;84.52;102001.44;5077634;28;20028;-71
2022/07/22 04:15:50;;;;;;;2.83;0.60;;;;;;;16.40;84.65;102023.47;5046299;28;20031;-71
2022/07/22 04:18:17;;;;;;;4.22;0.55;;;;;;;16.40;84.31;102019.97;5080138;28;20031;-72
2022/07/22 04:20:42;;;;;;;2.42;0.40;;;;;;;16.43;84.16;102017.81;5081281;28;20016;-71
2022/07/22 04:23:08;;;;;;;4.20;0.77;;;;;;;16.38;83.60;102012.13;5081612;28;20460;-71
2022/07/22 04:25:33;;;;;;;0.50;0.30;;;;;;;16.46;83.92;102021.97;5081539;28;20028;-71
2022/07/22 04:27:59;;;;;;;1.10;0.45;;;;;;;16.45;83.87;102025.66;5078382;28;20021;-71
2022/07/22 04:30:24;;;;;;;2.20;0.40;;;;;;;16.43;83.17;102022.31;5077129;28;20021;-71
2022/07/22 04:32:49;;;;;;;0.30;0.30;;;;;;;16.45;83.70;102021.16;5079707;28;20480;-71
2022/07/22 04:35:15;;;;;;;0.80;0.40;;;;;;;16.38;83.10;102011.31;5082283;28;20032;-71
2022/07/22 04:37:40;;;;;;;1.38;0.68;;;;;;;16.49;83.59;102021.69;5081293;28;20028;-71
2022/07/22 04:40:06;;;;;;;1.85;0.50;;;;;;;16.48;82.54;102019.16;5077727;28;20032;-71
2022/07/22 04:42:31;;;;;;;0.50;0.50;;;;;;;16.52;82.28;102010.69;5079611;28;20059;-71
2022/07/22 04:44:57;;;;;;;4.05;0.82;;;;;;;16.57;82.85;102013.72;5058950;28;20116;-71
2022/07/22 04:47:22;;;;;;;1.10;0.75;;;;;;;16.59;83.36;102011.75;5060866;28;20440;-71
2022/07/22 04:49:47;;;;;;;4.07;0.47;;;;;;;16.56;84.07;102013.88;5080253;28;20049;-71
2022/07/22 04:52:13;;;;;;;1.95;0.35;;;;;;;16.60;83.38;102023.22;5076261;28;20060;-71
2022/07/22 04:54:38;;;;;;;0.50;0.35;;;;;;;16.62;82.61;102007.91;5064115;28;20052;-71
2022/07/22 04:57:04;;;;;;;1.20;0.40;;;;;;;16.64;82.15;102021.91;5075313;28;20135;-71
2022/07/22 04:59:29;;;;;;;1.48;0.50;;;;;;;16.59;82.10;101994.88;5077078;28;20515;-71
2022/07/22 05:01:54;;;;;;;0.40;0.30;;;;;;;16.67;82.08;102010.91;5074698;28;20103;-71
2022/07/22 05:04:20;;;;;;;0.45;0.30;;;;;;;16.73;81.43;102014.78;5060364;28;20058;-72
2022/07/22 05:06:45;;;;;;;0.35;0.20;;;;;;;16.69;81.80;102014.25;5077608;28;20507;-71
2022/07/22 05:09:10;;;;;;;1.48;0.57;;;;;;;16.63;81.87;102004.22;5078939;28;20028;-70
2022/07/22 05:11:36;;;;;;;0.82;0.52;;;;;;;16.63;81.54;102013.06;5075755;28;20507;-71
2022/07/22 05:14:02;;;;;;;3.42;0.40;;;;;;;16.70;81.94;102017.75;5067482;28;20492;-71
2022/07/22 05:16:27;;;;;;;1.48;0.40;;;;;;;16.74;81.56;102014.59;5070546;28;20447;-71
2022/07/22 05:18:52;;;;;;;1.20;0.55;;;;;;;16.78;81.56;102015.09;5072891;28;20446;-71
2022/07/22 05:21:18;;;;;;;1.52;0.43;;;;;;;16.82;82.02;102011.16;5071456;28;20628;-71
2022/07/22 05:23:43;;;;;;;1.17;0.57;;;;;;;16.86;82.14;102013.34;5075249;28;20044;-71
2022/07/22 05:26:09;;;;;;;2.45;0.63;;;;;;;16.74;81.35;101995.94;5073435;28;20037;-71
2022/07/22 05:28:35;;;;;;;0.95;0.45;;;;;;;16.78;80.85;101999.13;5069410;28;20053;-70
2022/07/22 05:31:00;;;;;;;1.83;0.60;;;;;;;16.83;80.01;102008.34;5072743;28;20046;-71
2022/07/22 05:33:26;;;;;;;0.98;0.68;;;;;;;16.85;79.43;102006.34;5070962;28;20032;-71
2022/07/22 05:35:51;;;;;;;0.32;0.13;;;;;;;16.79;79.41;102001.63;5072693;28;20020;-70
2022/07/22 05:38:17;;;;;;;2.67;0.57;;;;;;;16.91;78.95;102007.50;5073427;28;20044;-71
2022/07/22 05:40:42;;;;;;;2.40;0.52;;;;;;;16.89;79.06;102006.84;5068789;28;20055;-72
2022/07/22 05:43:08;;;;;;;2.03;0.20;;;;;;;16.95;77.96;102016.03;5070545;28;20070;-70
2022/07/22 05:45:34;;;;;;;0.70;0.20;;;;;;;16.96;78.76;102009.69;5052526;28;20055;-70
2022/07/22 05:48:00;;;;;;;0.98;0.40;;;;;;;16.96;79.02;102013.22;5070168;28;20019;-70
2022/07/22 05:50:26;;;;;;;1.55;0.65;;;;;;;17.02;78.44;102023.19;5034799;28;20036;-71
2022/07/22 05:52:52;;;;;;;1.10;0.90;;;;;;;17.10;78.98;102027.72;5068379;28;20396;-73
2022/07/22 05:55:17;;;;;;;2.17;0.40;;;;;;;17.17;78.94;102026.06;5052125;28;20163;-71
2022/07/22 05:57:42;;;;;;;0.80;0.30;;;;;;;17.22;78.02;102022.88;5072056;28;20031;-71
2022/07/22 06:00:08;;;;;;;0.68;0.40;;;;;;;17.22;77.74;102034.41;5072244;28;20048;-71
2022/07/22 06:02:34;;;;;;;0.98;0.70;;;;;;;17.23;78.40;102030.75;5066612;28;20024;-71
2022/07/22 06:05:00;;;;;;;2.58;0.75;;;;;;;17.39;78.30;102032.56;5068269;28;20028;-70
2022/07/22 06:07:26;;;;;;;2.17;0.38;;;;;;;17.46;77.57;102036.28;5067905;28;20032;-71
2022/07/22 06:09:52;;;;;;;0.52;0.30;;;;;;;17.45;76.91;102031.09;5068380;28;20016;-70
2022/07/22 06:12:17;;;;;;;1.80;0.28;;;;;;;17.47;77.48;102027.25;5062806;28;20403;-71
2022/07/22 06:14:43;;;;;;;1.00;0.38;;;;;;;17.58;76.10;102027.94;5065534;28;20357;-71
2022/07/22 06:17:09;;;;;;;3.80;0.45;;;;;;;17.68;76.89;102044.59;5067094;28;20026;-71
2022/07/22 06:19:34;;;;;;;0.20;0.20;;;;;;;17.73;75.28;102041.44;5062767;28;20017;-71
2022/07/22 06:22:00;;;;;;;0.77;0.43;;;;;;;17.80;75.66;102043.25;5065561;28;20622;-71
2022/07/22 06:24:25;;;;;;;0.30;0.20;;;;;;;17.85;75.06;102040.09;5068218;28;20032;-71
2022/07/22 06:26:51;;;;;;;0.93;0.77;;;;;;;17.85;75.88;102040.09;5068338;28;20035;-71
2022/07/22 06:29:17;;;;;;;2.63;0.80;;;;;;;17.88;74.68;102043.28;5068585;28;20074;-71
2022/07/22 06:31:42;;;;;;;1.25;0.40;;;;;;;17.89;75.19;102036.09;5070549;28;20115;-71
2022/07/22 06:34:08;;;;;;;1.55;0.30;;;;;;;17.94;74.37;102038.25;5071581;28;20036;-71
2022/07/22 06:36:33;;;;;;;0.50;0.43;;;;;;;18.03;74.50;102043.44;5066506;28;20568;-71
2022/07/22 06:38:58;;;;;;;0.85;0.32;;;;;;;18.06;73.66;102044.91;5065782;28;20020;-71
2022/07/22 06:41:25;;;;;;;0.30;0.20;;;;;;;18.13;73.31;102045.06;5067177;28;20070;-71
2022/07/22 06:43:50;;;;;;;0.77;0.50;;;;;;;18.19;73.63;102047.06;5067174;28;20030;-71
2022/07/22 06:46:16;;;;;;;0.93;0.35;;;;;;;18.27;73.48;102050.53;5067389;28;20119;-71
2022/07/22 06:48:41;;;;;;;1.02;0.65;;;;;;;18.19;73.10;102037.19;5066916;28;20190;-72
2022/07/22 06:51:06;;;;;;;0.73;0.25;;;;;;;18.33;72.79;102043.66;5069043;28;20032;-71
2022/07/22 06:53:32;;;;;;;3.17;0.30;;;;;;;18.40;74.18;102044.66;5065307;28;20107;-71
2022/07/22 06:55:58;;;;;;;0.85;0.60;;;;;;;18.45;73.81;102053.00;5069179;28;20452;-71
2022/07/22 06:58:23;;;;;;;4.95;1.08;;;;;;;18.49;73.24;102048.97;5069090;28;20401;-71
2022/07/22 07:00:49;;;;;;;0.77;0.43;;;;;;;18.55;74.30;102049.28;5068987;28;20037;-72
2022/07/22 07:03:14;;;;;;;1.85;0.75;;;;;;;18.58;73.59;102046.25;5069242;28;20282;-72
2022/07/22 07:05:40;;;;;;;3.17;0.68;;;;;;;18.54;73.39;102032.41;5069061;28;20033;-71
2022/07/22 07:08:05;;;;;;;3.55;0.57;;;;;;;18.58;71.92;102047.09;5052179;28;20040;-71
2022/07/22 07:10:30;;;;;;;1.17;0.40;;;;;;;18.56;72.78;102045.59;5067218;28;20039;-71
2022/07/22 07:12:57;;;;;;;1.48;0.40;;;;;;;18.59;72.29;102039.91;5068478;28;20106;-71
2022/07/22 07:15:23;;;;;;;0.30;0.10;;;;;;;18.66;72.37;102043.53;5052544;28;20507;-71
2022/07/22 07:17:48;;;;;;;2.10;0.50;;;;;;;18.81;71.09;102044.50;5068905;28;20107;-71
2022/07/22 07:20:14;;;;;;;1.33;0.50;;;;;;;18.82;71.18;102043.50;5078776;28;20111;-71
2022/07/22 07:22:39;;;;;;;0.50;0.50;;;;;;;18.97;70.23;102037.41;5068803;28;20111;-71
2022/07/22 07:25:06;;;;;;;2.50;0.40;;;;;;;19.07;70.54;102040.66;5067708;28;20028;-71
2022/07/22 07:27:31;;;;;;;3.70;0.63;;;;;;;19.07;70.16;102033.47;5067845;28;20024;-71
2022/07/22 07:29:57;;;;;;;0.90;0.45;;;;;;;19.16;70.90;102036.09;5069830;28;20020;-73
2022/07/22 07:32:22;;;;;;;1.48;0.35;;;;;;;19.25;70.82;102025.16;5076289;28;20070;-71
2022/07/22 07:34:48;;;;;;;0.35;0.28;;;;;;;19.31;69.54;102037.00;5079806;28;20038;-71
2022/07/22 07:37:13;;;;;;;5.85;0.43;;;;;;;19.38;69.12;102048.66;5076431;28;20028;-70
2022/07/22 07:39:39;;;;;;;0.43;0.30;;;;;;;19.37;68.63;102048.84;5079956;28;20029;-72
2022/07/22 07:42:04;;;;;;;1.02;0.35;;;;;;;19.38;69.25;102039.78;5075094;28;20024;-71
2022/07/22 07:44:29;;;;;;;0.40;0.32;;;;;;;19.43;69.49;102045.44;5072190;28;20396;-71
2022/07/22 07:46:55;;;;;;;0.90;0.52;;;;;;;19.43;69.84;102045.44;5070767;28;20032;-71
2022/07/22 07:49:20;;;;;;;0.95;0.43;;;;;;;19.29;68.88;102021.13;5074230;28;20175;-71
2022/07/22 07:51:45;;;;;;;2.05;0.30;;;;;;;19.45;68.60;102043.44;5078322;28;20453;-71
2022/07/22 07:54:11;;;;;;;0.52;0.40;;;;;;;19.47;67.98;102046.75;5068783;28;20043;-72
2022/07/22 07:56:36;;;;;;;0.43;0.30;;;;;;;19.76;67.67;102040.66;5072023;28;20428;-71
2022/07/22 07:59:02;;;;;;;1.10;0.30;;;;;;;20.07;67.87;102037.84;5074211;28;20024;-72
2022/07/22 08:01:28;;;;;;;0.38;0.35;;;;;;;20.41;66.45;102044.50;5075333;28;20025;-71
2022/07/22 08:03:53;;;;;;;0.93;0.43;;;;;;;20.43;65.44;102037.09;5071157;28;20039;-71
2022/07/22 08:06:18;;;;;;;0.68;0.35;;;;;;;20.51;64.73;102049.56;5073172;28;20036;-71
2022/07/22 08:08:44;;;;;;;2.50;0.68;;;;;;;20.57;63.65;102042.63;5071960;28;20040;-72
2022/07/22 08:11:09;;;;;;;2.78;0.50;;;;;;;20.64;63.89;102038.22;5074810;28;20048;-72
2022/07/22 08:13:34;;;;;;;1.17;0.45;;;;;;;20.57;63.42;102042.63;5066249;28;20115;-72
2022/07/22 08:16:00;;;;;;;1.83;0.35;;;;;;;20.57;64.66;102045.31;5071172;28;20029;-71
2022/07/22 08:18:28;;;;;;;2.40;0.50;;;;;;;20.62;65.22;102042.94;5070989;28;20070;-71
2022/07/22 08:20:55;;;;;;;0.98;0.40;;;;;;;20.51;65.02;102049.56;5070966;28;20020;-71
2022/07/22 08:23:20;;;;;;;0.77;0.52;;;;;;;20.51;64.76;102047.75;5070418;28;20028;-71
2022/07/22 08:25:46;;;;;;;1.48;0.40;;;;;;;20.47;64.41;102057.19;5069775;28;20038;-71
2022/07/22 08:28:11;;;;;;;0.55;0.28;;;;;;;20.26;64.72;102030.28;5069532;28;20154;-71
2022/07/22 08:30:37;;;;;;;1.55;0.40;;;;;;;20.40;64.74;102037.47;5074218;28;20036;-72
2022/07/22 08:33:02;;;;;;;2.35;0.50;;;;;;;20.57;66.47;102058.72;5080501;28;20017;-71
2022/07/22 08:35:28;;;;;;;3.38;0.50;;;;;;;20.77;65.80;102054.47;5082701;28;20483;-71
2022/07/22 08:37:53;;;;;;;1.85;0.25;;;;;;;20.84;65.43;102058.06;5083970;28;20574;-71
2022/07/22 08:40:19;;;;;;;0.20;0.13;;;;;;;21.00;65.19;102056.19;5080409;28;20472;-71
2022/07/22 08:42:47;;;;;;;1.83;0.40;;;;;;;20.89;63.53;102058.34;5072175;28;20027;-71
2022/07/22 08:45:12;;;;;;;2.45;0.45;;;;;;;20.87;64.30;102055.00;5070574;28;20040;-71
2022/07/22 08:47:38;;;;;;;0.47;0.20;;;;;;;20.97;64.23;102060.09;5070149;28;20028;-71
2022/07/22 08:50:05;;;;;;;1.77;1.15;;;;;;;20.91;64.28;102053.59;5068389;28;20064;-71
2022/07/22 08:52:30;;;;;;;0.20;0.10;;;;;;;20.98;64.07;102063.59;5070546;28;20028;-71
2022/07/22 08:54:56;;;;;;;1.67;0.22;;;;;;;20.96;63.54;102064.59;5065506;28;20052;-72
2022/07/22 08:57:21;;;;;;;1.20;0.57;;;;;;;20.94;63.15;102063.94;5069093;28;20483;-71
2022/07/22 08:59:56;;;;;;;6.97;0.68;;;;;;;20.99;63.41;102067.91;5075650;28;20024;-71
2022/07/22 09:02:23;;;;;;;0.30;0.30;;;;;;;20.81;63.36;102066.47;5072728;28;20077;-71
2022/07/22 09:04:58;;;;;;;0.20;0.10;;;;;;;20.65;63.60;102066.72;5072473;28;20113;-71
2022/07/22 09:07:34;;;;;;;0.30;0.20;;;;;;;20.63;63.62;102053.47;5079574;28;20092;-71
2022/07/22 09:10:00;;;;;;;2.00;0.70;;;;;;;20.62;64.24;102061.72;5073569;28;20028;-71
2022/07/22 09:12:29;;;;;;;0.22;0.10;;;;;;;20.70;64.16;102064.28;5073407;28;20052;-71
2022/07/22 09:14:56;;;;;;;0.80;0.63;;;;;;;20.74;64.80;102058.34;5079785;28;20039;-71
2022/07/22 09:17:35;;;;;;;0.70;0.20;;;;;;;20.90;64.43;102068.03;5074358;28;20020;-72
2022/07/22 09:20:04;;;;;;;1.88;0.43;;;;;;;20.87;63.06;102064.91;5075383;28;20020;-71
2022/07/22 09:22:36;;;;;;;1.48;0.52;;;;;;;21.00;63.57;102058.88;5078483;28;20030;-71
2022/07/22 09:25:28;;;;;;;1.02;0.50;;;;;;;21.18;63.69;102067.31;5071893;28;20024;-71
2022/07/22 09:28:08;;;;;;;1.20;0.60;;;;;;;21.26;63.03;102069.88;5069609;28;20021;-71
2022/07/22 09:30:36;;;;;;;0.80;0.38;;;;;;;21.34;62.96;102061.69;5074621;28;20361;-71
2022/07/22 09:33:03;;;;;;;0.40;0.30;;;;;;;21.47;63.29;102054.81;5076294;28;20033;-73
2022/07/22 09:35:29;;;;;;;0.75;0.60;;;;;;;21.70;63.24;102065.34;5077623;28;20020;-73
2022/07/22 09:38:00;;;;;;;1.42;0.50;;;;;;;21.70;61.72;102081.47;5082569;28;20032;-71
2022/07/22 09:40:27;;;;;;;1.00;0.25;;;;;;;21.60;61.74;102071.06;5071120;28;20054;-72
2022/07/22 09:42:55;;;;;;;3.47;0.60;;;;;;;21.61;62.60;102067.34;5070951;28;20439;-71
2022/07/22 09:45:22;;;;;;;2.00;0.38;;;;;;;21.61;63.53;102078.09;5072124;28;20206;-71
2022/07/22 09:47:49;;;;;;;1.83;0.30;;;;;;;21.49;62.43;102061.66;5072558;28;20077;-71
2022/07/22 09:50:20;;;;;;;0.28;0.10;;;;;;;21.60;62.86;102064.84;5074710;28;20036;-71
2022/07/22 09:52:47;;;;;;;1.23;0.85;;;;;;;21.60;62.32;102064.84;5072566;28;20084;-71
2022/07/22 09:55:18;;;;;;;2.08;0.10;;;;;;;21.53;62.91;102073.66;5075698;28;20024;-73
2022/07/22 09:57:44;;;;;;;3.00;0.30;;;;;;;21.42;63.29;102081.41;5075654;28;20477;-73
2022/07/22 10:00:11;;;;;;;0.90;0.40;;;;;;;21.27;63.64;102071.53;5077534;28;20081;-72
2022/07/22 10:02:47;;;;;;;0.30;0.20;;;;;;;21.12;63.24;102082.34;5082802;28;20392;-72
2022/07/22 10:05:14;;;;;;;0.73;0.30;;;;;;;20.74;65.03;102066.41;5078718;28;20027;-71
2022/07/22 10:07:44;;;;;;;1.48;0.60;;;;;;;20.77;67.07;102097.38;5080766;28;20101;-72
2022/07/22 10:10:12;;;;;;;1.55;0.40;;;;;;;20.54;68.57;102098.31;5079820;28;20526;-71
2022/07/22 10:12:38;;;;;;;0.70;0.38;;;;;;;20.22;69.06;102099.50;5074777;28;20028;-72
2022/07/22 10:15:05;;;;;;;0.75;0.30;;;;;;;20.22;70.00;102096.00;5075630;28;20036;-72
2022/07/22 10:17:32;;;;;;;1.20;0.55;;;;;;;20.16;69.91;102077.97;5071839;28;20020;-71
2022/07/22 10:19:58;;;;;;;1.67;0.30;;;;;;;20.25;68.84;102092.94;5070758;28;20028;-71
2022/07/22 10:22:38;;;;;;;2.47;0.47;;;;;;;20.32;69.81;102099.25;5073927;28;20028;-72
2022/07/22 10:25:05;;;;;;;0.38;0.20;;;;;;;20.33;69.52;102087.50;5071778;28;20384;-71
2022/07/22 10:27:55;;;;;;;0.40;0.20;;;;;;;20.53;69.82;102091.28;5069558;28;20025;-71
2022/07/22 10:30:40;;;;;;;0.63;0.30;;;;;;;20.77;68.32;102097.38;5073327;28;20036;-71
2022/07/22 10:33:17;;;;;;;0.57;0.30;;;;;;;21.08;67.80;102099.84;5074488;28;20041;-71
2022/07/22 10:35:42;;;;;;;0.55;0.30;;;;;;;21.27;66.67;102086.81;5074271;28;20024;-71
2022/07/22 10:38:09;;;;;;;1.45;0.50;;;;;;;21.16;67.25;102083.63;5070611;28;20403;-71
2022/07/22 10:41:02;;;;;;;3.55;0.52;;;;;;;21.34;66.38;102077.81;5077466;28;20025;-71
2022/07/22 10:43:43;;;;;;;1.65;0.40;;;;;;;21.60;66.44;102075.59;5063016;28;20159;-71
2022/07/22 10:46:09;;;;;;;1.90;0.45;;;;;;;21.78;65.62;102074.09;5069107;28;20451;-71
2022/07/22 10:48:37;;;;;;;1.88;0.40;;;;;;;22.24;64.74;102072.78;5071718;28;20136;-72
2022/07/22 10:51:21;;;;;;;0.80;0.30;;;;;;;22.78;63.93;102063.94;5071175;28;20074;-71
2022/07/22 10:53:58;;;;;;;0.52;0.32;;;;;;;23.34;61.51;102057.50;5069528;28;20035;-71
2022/07/22 10:56:26;;;;;;;2.17;0.30;;;;;;;24.23;59.92;102056.19;5077066;28;20032;-71
2022/07/22 10:58:57;;;;;;;1.75;0.45;;;;;;;24.64;58.05;102052.34;5073124;28;20125;-71
2022/07/22 11:01:29;;;;;;;1.00;0.30;;;;;;;24.88;57.38;102057.22;5078375;28;20032;-71
2022/07/22 11:03:55;;;;;;;1.00;0.38;;;;;;;24.83;58.35;102058.69;5075275;28;20105;-71
2022/07/22 11:06:30;;;;;;;1.83;0.50;;;;;;;24.89;56.91;102064.25;5075909;28;20031;-71
2022/07/22 11:09:05;;;;;;;0.30;0.17;;;;;;;25.10;56.99;102063.09;5072097;28;20544;-71
2022/07/22 11:11:35;;;;;;;2.08;0.30;;;;;;;25.24;55.43;102062.00;5075733;28;20020;-72
2022/07/22 11:14:01;;;;;;;0.50;0.20;;;;;;;25.19;55.87;102064.50;5072893;28;20503;-71
2022/07/22 11:16:28;;;;;;;0.10;0.10;;;;;;;25.67;55.68;102055.84;5077433;28;20107;-72
2022/07/22 11:19:02;;;;;;;0.88;0.20;;;;;;;25.01;57.06;102047.16;5076216;28;20069;-71
2022/07/22 11:21:30;;;;;;;1.67;0.32;;;;;;;24.88;57.97;102051.81;5069346;28;20064;-72